sensor_id;sensor_type;location;lat;lon;timestamp;P1;durP1;ratioP1;P2;durP2;ratioP2
63818;SDS011;49970;54.976;73.248;2023-02-28T00:01:56;15.30;;;10.25;;
63818;SDS011;49970;54.976;73.248;2023-02-28T00:04:25;16.35;;;10.55;;
63818;SDS011;49970;54.976;73.248;2023-02-28T00:06:51;17.02;;;10.95;;
63818;SDS011;49970;54.976;73.248;2023-02-28T00:09:17;14.88;;;9.73;;
63818;SDS011;49970;54.976;73.248;2023-02-28T00:11:44;19.35;;;11.63;;
63818;SDS011;49970;54.976;73.248;2023-02-28T00:14:10;15.23;;;9.70;;
63818;SDS011;49970;54.976;73.248;2023-02-28T00:16:36;24.73;;;11.40;;
63818;SDS011;49970;54.976;73.248;2023-02-28T00:19:12;26.90;;;10.85;;
63818;SDS011;49970;54.976;73.248;2023-02-28T00:21:39;24.05;;;11.45;;
63818;SDS011;49970;54.976;73.248;2023-02-28T00:24:06;18.33;;;10.80;;
63818;SDS011;49970;54.976;73.248;2023-02-28T00:26:32;27.88;;;11.23;;
63818;SDS011;49970;54.976;73.248;2023-02-28T00:28:59;20.50;;;11.30;;
63818;SDS011;49970;54.976;73.248;2023-02-28T00:31:25;18.55;;;10.90;;
63818;SDS011;49970;54.976;73.248;2023-02-28T00:33:51;18.67;;;12.27;;
63818;SDS011;49970;54.976;73.248;2023-02-28T00:36:17;16.55;;;11.70;;
63818;SDS011;49970;54.976;73.248;2023-02-28T00:38:44;17.65;;;11.10;;
63818;SDS011;49970;54.976;73.248;2023-02-28T00:41:10;17.98;;;12.02;;
63818;SDS011;49970;54.976;73.248;2023-02-28T00:43:41;20.25;;;11.20;;
63818;SDS011;49970;54.976;73.248;2023-02-28T00:46:10;23.85;;;11.90;;
63818;SDS011;49970;54.976;73.248;2023-02-28T00:48:36;20.98;;;11.82;;
63818;SDS011;49970;54.976;73.248;2023-02-28T00:51:07;22.52;;;10.07;;
63818;SDS011;49970;54.976;73.248;2023-02-28T00:53:33;16.00;;;10.90;;
63818;SDS011;49970;54.976;73.248;2023-02-28T00:56:00;15.20;;;11.23;;
63818;SDS011;49970;54.976;73.248;2023-02-28T00:58:26;21.52;;;11.52;;
63818;SDS011;49970;54.976;73.248;2023-02-28T01:00:53;21.60;;;10.77;;
63818;SDS011;49970;54.976;73.248;2023-02-28T01:03:20;20.85;;;11.50;;
63818;SDS011;49970;54.976;73.248;2023-02-28T01:05:46;26.27;;;11.50;;
63818;SDS011;49970;54.976;73.248;2023-02-28T01:08:13;17.70;;;11.27;;
63818;SDS011;49970;54.976;73.248;2023-02-28T01:10:50;17.23;;;11.55;;
63818;SDS011;49970;54.976;73.248;2023-02-28T01:13:17;17.65;;;10.38;;
63818;SDS011;49970;54.976;73.248;2023-02-28T01:15:45;14.15;;;10.77;;
63818;SDS011;49970;54.976;73.248;2023-02-28T01:18:21;16.48;;;10.45;;
63818;SDS011;49970;54.976;73.248;2023-02-28T01:20:52;15.52;;;11.82;;
63818;SDS011;49970;54.976;73.248;2023-02-28T01:23:19;16.88;;;11.00;;
63818;SDS011;49970;54.976;73.248;2023-02-28T01:26:08;18.98;;;11.07;;
63818;SDS011;49970;54.976;73.248;2023-02-28T01:28:38;17.15;;;11.35;;
63818;SDS011;49970;54.976;73.248;2023-02-28T01:31:10;22.35;;;9.70;;
63818;SDS011;49970;54.976;73.248;2023-02-28T01:33:37;16.85;;;11.27;;
63818;SDS011;49970;54.976;73.248;2023-02-28T01:36:05;15.60;;;10.68;;
63818;SDS011;49970;54.976;73.248;2023-02-28T01:38:35;15.73;;;10.05;;
63818;SDS011;49970;54.976;73.248;2023-02-28T01:41:01;12.40;;;9.68;;
63818;SDS011;49970;54.976;73.248;2023-02-28T01:43:30;16.25;;;9.38;;
63818;SDS011;49970;54.976;73.248;2023-02-28T01:46:04;22.20;;;11.07;;
63818;SDS011;49970;54.976;73.248;2023-02-28T01:48:31;26.48;;;10.55;;
63818;SDS011;49970;54.976;73.248;2023-02-28T01:51:08;18.05;;;10.65;;
63818;SDS011;49970;54.976;73.248;2023-02-28T01:53:39;16.60;;;10.67;;
63818;SDS011;49970;54.976;73.248;2023-02-28T01:56:10;13.20;;;9.48;;
63818;SDS011;49970;54.976;73.248;2023-02-28T01:58:48;18.10;;;9.73;;
63818;SDS011;49970;54.976;73.248;2023-02-28T02:01:27;11.48;;;8.65;;
63818;SDS011;49970;54.976;73.248;2023-02-28T02:03:55;13.77;;;8.93;;
63818;SDS011;49970;54.976;73.248;2023-02-28T02:06:39;13.50;;;8.95;;
63818;SDS011;49970;54.976;73.248;2023-02-28T02:09:10;13.02;;;8.63;;
63818;SDS011;49970;54.976;73.248;2023-02-28T02:11:37;12.25;;;8.65;;
63818;SDS011;49970;54.976;73.248;2023-02-28T02:14:30;13.90;;;9.30;;
63818;SDS011;49970;54.976;73.248;2023-02-28T02:17:42;23.77;;;9.00;;
63818;SDS011;49970;54.976;73.248;2023-02-28T02:28:42;16.88;;;8.82;;
63818;SDS011;49970;54.976;73.248;2023-02-28T02:43:00;17.27;;;9.27;;
63818;SDS011;49970;54.976;73.248;2023-02-28T02:48:38;12.48;;;8.68;;
63818;SDS011;49970;54.976;73.248;2023-02-28T02:51:10;17.00;;;9.02;;
63818;SDS011;49970;54.976;73.248;2023-02-28T02:56:28;9.35;;;7.47;;
63818;SDS011;49970;54.976;73.248;2023-02-28T02:59:03;15.25;;;8.07;;
63818;SDS011;49970;54.976;73.248;2023-02-28T03:01:34;10.85;;;8.55;;
63818;SDS011;49970;54.976;73.248;2023-02-28T03:04:04;12.60;;;8.93;;
63818;SDS011;49970;54.976;73.248;2023-02-28T03:06:39;14.43;;;8.80;;
63818;SDS011;49970;54.976;73.248;2023-02-28T03:09:05;29.95;;;10.25;;
63818;SDS011;49970;54.976;73.248;2023-02-28T03:11:36;14.45;;;9.25;;
63818;SDS011;49970;54.976;73.248;2023-02-28T03:23:03;19.08;;;9.40;;
63818;SDS011;49970;54.976;73.248;2023-02-28T03:28:26;26.80;;;10.35;;
63818;SDS011;49970;54.976;73.248;2023-02-28T03:31:12;14.68;;;9.95;;
63818;SDS011;49970;54.976;73.248;2023-02-28T03:33:59;15.77;;;9.55;;
63818;SDS011;49970;54.976;73.248;2023-02-28T03:36:32;17.70;;;9.52;;
63818;SDS011;49970;54.976;73.248;2023-02-28T03:39:14;13.85;;;9.02;;
63818;SDS011;49970;54.976;73.248;2023-02-28T03:41:47;18.88;;;10.00;;
63818;SDS011;49970;54.976;73.248;2023-02-28T03:44:35;19.10;;;10.50;;
63818;SDS011;49970;54.976;73.248;2023-02-28T03:47:19;18.42;;;10.68;;
63818;SDS011;49970;54.976;73.248;2023-02-28T03:49:54;21.23;;;10.05;;
63818;SDS011;49970;54.976;73.248;2023-02-28T03:52:38;18.73;;;10.45;;
63818;SDS011;49970;54.976;73.248;2023-02-28T03:55:11;14.35;;;9.82;;
63818;SDS011;49970;54.976;73.248;2023-02-28T03:57:41;15.07;;;10.32;;
63818;SDS011;49970;54.976;73.248;2023-02-28T04:00:39;15.77;;;10.10;;
63818;SDS011;49970;54.976;73.248;2023-02-28T04:03:22;16.80;;;10.82;;
63818;SDS011;49970;54.976;73.248;2023-02-28T04:05:53;20.55;;;10.98;;
63818;SDS011;49970;54.976;73.248;2023-02-28T04:08:21;14.10;;;9.43;;
63818;SDS011;49970;54.976;73.248;2023-02-28T04:10:50;17.52;;;9.93;;
63818;SDS011;49970;54.976;73.248;2023-02-28T04:13:26;14.00;;;8.95;;
63818;SDS011;49970;54.976;73.248;2023-02-28T04:15:52;14.70;;;9.70;;
63818;SDS011;49970;54.976;73.248;2023-02-28T04:18:24;18.33;;;10.57;;
63818;SDS011;49970;54.976;73.248;2023-02-28T04:20:50;15.63;;;9.02;;
63818;SDS011;49970;54.976;73.248;2023-02-28T04:23:21;15.20;;;9.35;;
63818;SDS011;49970;54.976;73.248;2023-02-28T04:25:47;22.42;;;9.23;;
63818;SDS011;49970;54.976;73.248;2023-02-28T04:28:15;13.23;;;9.77;;
63818;SDS011;49970;54.976;73.248;2023-02-28T04:30:41;16.95;;;9.82;;
63818;SDS011;49970;54.976;73.248;2023-02-28T04:33:07;17.58;;;10.00;;
63818;SDS011;49970;54.976;73.248;2023-02-28T04:35:33;12.68;;;9.60;;
63818;SDS011;49970;54.976;73.248;2023-02-28T04:37:59;20.05;;;10.20;;
63818;SDS011;49970;54.976;73.248;2023-02-28T04:40:25;20.92;;;10.60;;
63818;SDS011;49970;54.976;73.248;2023-02-28T04:42:53;21.08;;;9.85;;
63818;SDS011;49970;54.976;73.248;2023-02-28T04:45:29;23.65;;;9.15;;
63818;SDS011;49970;54.976;73.248;2023-02-28T04:47:57;21.00;;;8.32;;
63818;SDS011;49970;54.976;73.248;2023-02-28T04:50:29;23.48;;;9.82;;
63818;SDS011;49970;54.976;73.248;2023-02-28T04:53:00;18.52;;;9.57;;
63818;SDS011;49970;54.976;73.248;2023-02-28T04:55:26;15.35;;;10.02;;
63818;SDS011;49970;54.976;73.248;2023-02-28T04:57:52;23.30;;;11.05;;
63818;SDS011;49970;54.976;73.248;2023-02-28T05:00:19;21.33;;;10.18;;
63818;SDS011;49970;54.976;73.248;2023-02-28T05:02:55;21.58;;;10.27;;
63818;SDS011;49970;54.976;73.248;2023-02-28T05:05:21;24.27;;;10.43;;
63818;SDS011;49970;54.976;73.248;2023-02-28T05:07:57;19.65;;;9.63;;
63818;SDS011;49970;54.976;73.248;2023-02-28T05:10:24;18.60;;;9.43;;
63818;SDS011;49970;54.976;73.248;2023-02-28T05:13:00;25.00;;;9.55;;
63818;SDS011;49970;54.976;73.248;2023-02-28T05:15:27;21.50;;;11.02;;
63818;SDS011;49970;54.976;73.248;2023-02-28T05:17:53;18.83;;;9.88;;
63818;SDS011;49970;54.976;73.248;2023-02-28T05:20:24;20.85;;;10.43;;
63818;SDS011;49970;54.976;73.248;2023-02-28T05:22:50;18.92;;;9.27;;
63818;SDS011;49970;54.976;73.248;2023-02-28T05:25:19;13.30;;;9.10;;
63818;SDS011;49970;54.976;73.248;2023-02-28T05:27:47;16.83;;;9.77;;
63818;SDS011;49970;54.976;73.248;2023-02-28T05:30:14;19.98;;;9.70;;
63818;SDS011;49970;54.976;73.248;2023-02-28T05:32:41;14.38;;;10.48;;
63818;SDS011;49970;54.976;73.248;2023-02-28T05:35:15;21.98;;;10.95;;
63818;SDS011;49970;54.976;73.248;2023-02-28T05:37:42;29.02;;;10.50;;
63818;SDS011;49970;54.976;73.248;2023-02-28T05:40:08;25.02;;;10.30;;
63818;SDS011;49970;54.976;73.248;2023-02-28T05:42:37;24.35;;;10.15;;
63818;SDS011;49970;54.976;73.248;2023-02-28T05:45:04;15.68;;;10.48;;
63818;SDS011;49970;54.976;73.248;2023-02-28T05:50:13;40.65;;;11.00;;
63818;SDS011;49970;54.976;73.248;2023-02-28T05:52:50;13.88;;;9.02;;
63818;SDS011;49970;54.976;73.248;2023-02-28T05:55:26;19.83;;;10.10;;
63818;SDS011;49970;54.976;73.248;2023-02-28T05:57:53;18.17;;;10.98;;
63818;SDS011;49970;54.976;73.248;2023-02-28T06:00:29;27.77;;;10.63;;
63818;SDS011;49970;54.976;73.248;2023-02-28T06:02:55;18.58;;;10.55;;
63818;SDS011;49970;54.976;73.248;2023-02-28T06:05:33;31.35;;;11.20;;
63818;SDS011;49970;54.976;73.248;2023-02-28T06:08:00;18.92;;;11.18;;
63818;SDS011;49970;54.976;73.248;2023-02-28T06:10:26;21.17;;;10.30;;
63818;SDS011;49970;54.976;73.248;2023-02-28T06:12:52;25.15;;;11.63;;
63818;SDS011;49970;54.976;73.248;2023-02-28T06:15:18;23.73;;;11.90;;
63818;SDS011;49970;54.976;73.248;2023-02-28T06:17:46;20.50;;;10.80;;
63818;SDS011;49970;54.976;73.248;2023-02-28T06:20:12;15.45;;;10.63;;
63818;SDS011;49970;54.976;73.248;2023-02-28T06:22:43;23.25;;;10.98;;
63818;SDS011;49970;54.976;73.248;2023-02-28T06:25:15;23.42;;;11.07;;
63818;SDS011;49970;54.976;73.248;2023-02-28T06:27:45;14.77;;;11.05;;
63818;SDS011;49970;54.976;73.248;2023-02-28T06:30:11;24.98;;;12.05;;
63818;SDS011;49970;54.976;73.248;2023-02-28T06:32:38;25.70;;;10.95;;
63818;SDS011;49970;54.976;73.248;2023-02-28T06:35:09;21.60;;;11.68;;
63818;SDS011;49970;54.976;73.248;2023-02-28T06:37:36;18.38;;;11.30;;
63818;SDS011;49970;54.976;73.248;2023-02-28T06:40:02;17.60;;;11.10;;
63818;SDS011;49970;54.976;73.248;2023-02-28T06:42:31;21.42;;;10.68;;
63818;SDS011;49970;54.976;73.248;2023-02-28T06:44:58;14.65;;;10.07;;
63818;SDS011;49970;54.976;73.248;2023-02-28T06:47:31;18.40;;;11.05;;
63818;SDS011;49970;54.976;73.248;2023-02-28T06:49:57;16.65;;;11.40;;
63818;SDS011;49970;54.976;73.248;2023-02-28T06:52:34;16.98;;;11.60;;
63818;SDS011;49970;54.976;73.248;2023-02-28T06:55:13;16.90;;;12.25;;
63818;SDS011;49970;54.976;73.248;2023-02-28T06:57:40;21.98;;;11.65;;
63818;SDS011;49970;54.976;73.248;2023-02-28T07:00:07;13.70;;;10.48;;
63818;SDS011;49970;54.976;73.248;2023-02-28T07:02:44;16.80;;;11.07;;
63818;SDS011;49970;54.976;73.248;2023-02-28T07:05:22;13.32;;;10.13;;
63818;SDS011;49970;54.976;73.248;2023-02-28T07:07:54;18.02;;;11.18;;
63818;SDS011;49970;54.976;73.248;2023-02-28T07:10:25;22.45;;;10.95;;
63818;SDS011;49970;54.976;73.248;2023-02-28T07:12:51;20.08;;;11.57;;
63818;SDS011;49970;54.976;73.248;2023-02-28T07:15:27;19.35;;;11.38;;
63818;SDS011;49970;54.976;73.248;2023-02-28T07:17:57;18.25;;;11.52;;
63818;SDS011;49970;54.976;73.248;2023-02-28T07:20:23;20.00;;;11.05;;
63818;SDS011;49970;54.976;73.248;2023-02-28T07:22:54;19.92;;;11.10;;
63818;SDS011;49970;54.976;73.248;2023-02-28T07:25:26;19.88;;;11.07;;
63818;SDS011;49970;54.976;73.248;2023-02-28T07:27:54;16.38;;;10.75;;
63818;SDS011;49970;54.976;73.248;2023-02-28T07:30:31;21.05;;;12.13;;
63818;SDS011;49970;54.976;73.248;2023-02-28T07:32:57;34.30;;;11.75;;
63818;SDS011;49970;54.976;73.248;2023-02-28T07:35:24;15.00;;;11.10;;
63818;SDS011;49970;54.976;73.248;2023-02-28T07:37:50;19.25;;;11.90;;
63818;SDS011;49970;54.976;73.248;2023-02-28T07:40:21;19.80;;;11.00;;
63818;SDS011;49970;54.976;73.248;2023-02-28T07:42:47;18.50;;;11.77;;
63818;SDS011;49970;54.976;73.248;2023-02-28T07:45:16;15.48;;;10.55;;
63818;SDS011;49970;54.976;73.248;2023-02-28T07:47:42;14.43;;;10.52;;
63818;SDS011;49970;54.976;73.248;2023-02-28T07:50:11;19.70;;;11.70;;
63818;SDS011;49970;54.976;73.248;2023-02-28T07:52:39;25.45;;;11.23;;
63818;SDS011;49970;54.976;73.248;2023-02-28T07:55:07;18.50;;;11.10;;
63818;SDS011;49970;54.976;73.248;2023-02-28T07:57:35;23.08;;;12.88;;
63818;SDS011;49970;54.976;73.248;2023-02-28T08:00:03;20.95;;;11.40;;
63818;SDS011;49970;54.976;73.248;2023-02-28T08:02:37;20.90;;;11.52;;
63818;SDS011;49970;54.976;73.248;2023-02-28T08:05:03;18.48;;;11.75;;
63818;SDS011;49970;54.976;73.248;2023-02-28T08:07:35;19.63;;;12.20;;
63818;SDS011;49970;54.976;73.248;2023-02-28T08:10:01;18.95;;;12.00;;
63818;SDS011;49970;54.976;73.248;2023-02-28T08:12:28;19.27;;;13.70;;
63818;SDS011;49970;54.976;73.248;2023-02-28T08:14:54;22.20;;;11.85;;
63818;SDS011;49970;54.976;73.248;2023-02-28T08:17:21;16.63;;;12.75;;
63818;SDS011;49970;54.976;73.248;2023-02-28T08:19:48;29.40;;;12.77;;
63818;SDS011;49970;54.976;73.248;2023-02-28T08:22:20;21.75;;;11.88;;
63818;SDS011;49970;54.976;73.248;2023-02-28T08:24:51;29.75;;;13.65;;
63818;SDS011;49970;54.976;73.248;2023-02-28T08:27:17;17.90;;;11.77;;
63818;SDS011;49970;54.976;73.248;2023-02-28T08:29:47;23.67;;;12.25;;
63818;SDS011;49970;54.976;73.248;2023-02-28T08:32:13;19.77;;;13.40;;
63818;SDS011;49970;54.976;73.248;2023-02-28T08:34:49;20.08;;;12.30;;
63818;SDS011;49970;54.976;73.248;2023-02-28T08:37:15;18.40;;;12.93;;
63818;SDS011;49970;54.976;73.248;2023-02-28T08:39:52;16.15;;;11.80;;
63818;SDS011;49970;54.976;73.248;2023-02-28T08:42:18;17.35;;;11.82;;
63818;SDS011;49970;54.976;73.248;2023-02-28T08:44:44;22.63;;;13.60;;
63818;SDS011;49970;54.976;73.248;2023-02-28T08:47:10;21.63;;;13.63;;
63818;SDS011;49970;54.976;73.248;2023-02-28T08:49:37;21.23;;;13.05;;
63818;SDS011;49970;54.976;73.248;2023-02-28T08:52:13;24.73;;;14.05;;
63818;SDS011;49970;54.976;73.248;2023-02-28T08:56:06;20.85;;;11.43;;
63818;SDS011;49970;54.976;73.248;2023-02-28T08:58:37;22.15;;;13.43;;
63818;SDS011;49970;54.976;73.248;2023-02-28T09:01:08;30.38;;;12.90;;
63818;SDS011;49970;54.976;73.248;2023-02-28T09:04:01;21.90;;;12.93;;
63818;SDS011;49970;54.976;73.248;2023-02-28T09:06:28;30.33;;;13.27;;
63818;SDS011;49970;54.976;73.248;2023-02-28T09:08:57;23.95;;;12.85;;
63818;SDS011;49970;54.976;73.248;2023-02-28T09:11:35;23.98;;;13.07;;
63818;SDS011;49970;54.976;73.248;2023-02-28T09:14:12;20.55;;;12.35;;
63818;SDS011;49970;54.976;73.248;2023-02-28T09:16:38;26.13;;;12.80;;
63818;SDS011;49970;54.976;73.248;2023-02-28T09:19:12;33.53;;;12.23;;
63818;SDS011;49970;54.976;73.248;2023-02-28T09:21:38;29.58;;;12.23;;
63818;SDS011;49970;54.976;73.248;2023-02-28T09:24:05;25.08;;;12.63;;
63818;SDS011;49970;54.976;73.248;2023-02-28T09:26:31;21.40;;;13.90;;
63818;SDS011;49970;54.976;73.248;2023-02-28T09:28:58;17.35;;;12.40;;
63818;SDS011;49970;54.976;73.248;2023-02-28T09:31:34;24.52;;;13.18;;
63818;SDS011;49970;54.976;73.248;2023-02-28T09:34:00;22.67;;;13.52;;
63818;SDS011;49970;54.976;73.248;2023-02-28T09:36:27;22.00;;;13.13;;
63818;SDS011;49970;54.976;73.248;2023-02-28T09:38:58;36.85;;;14.07;;
63818;SDS011;49970;54.976;73.248;2023-02-28T09:41:25;18.08;;;12.65;;
63818;SDS011;49970;54.976;73.248;2023-02-28T09:43:59;20.05;;;12.38;;
63818;SDS011;49970;54.976;73.248;2023-02-28T09:46:43;19.48;;;12.73;;
63818;SDS011;49970;54.976;73.248;2023-02-28T09:49:14;19.27;;;13.88;;
63818;SDS011;49970;54.976;73.248;2023-02-28T09:51:55;20.48;;;13.32;;
63818;SDS011;49970;54.976;73.248;2023-02-28T09:54:31;20.52;;;13.40;;
63818;SDS011;49970;54.976;73.248;2023-02-28T09:57:07;20.63;;;12.82;;
63818;SDS011;49970;54.976;73.248;2023-02-28T09:59:52;21.88;;;13.60;;
63818;SDS011;49970;54.976;73.248;2023-02-28T10:05:41;21.02;;;14.80;;
63818;SDS011;49970;54.976;73.248;2023-02-28T10:11:15;23.65;;;15.30;;
63818;SDS011;49970;54.976;73.248;2023-02-28T10:16:42;25.00;;;15.68;;
63818;SDS011;49970;54.976;73.248;2023-02-28T10:22:27;23.90;;;13.55;;
63818;SDS011;49970;54.976;73.248;2023-02-28T10:25:01;20.77;;;12.82;;
63818;SDS011;49970;54.976;73.248;2023-02-28T10:27:45;24.70;;;13.18;;
63818;SDS011;49970;54.976;73.248;2023-02-28T10:30:12;19.65;;;13.88;;
63818;SDS011;49970;54.976;73.248;2023-02-28T10:32:39;22.23;;;15.10;;
63818;SDS011;49970;54.976;73.248;2023-02-28T10:35:14;23.42;;;15.32;;
63818;SDS011;49970;54.976;73.248;2023-02-28T10:37:50;21.35;;;13.65;;
63818;SDS011;49970;54.976;73.248;2023-02-28T10:42:54;20.75;;;13.57;;
63818;SDS011;49970;54.976;73.248;2023-02-28T10:45:22;19.20;;;13.40;;
63818;SDS011;49970;54.976;73.248;2023-02-28T10:48:03;20.48;;;14.65;;
63818;SDS011;49970;54.976;73.248;2023-02-28T10:50:51;16.63;;;13.38;;
63818;SDS011;49970;54.976;73.248;2023-02-28T11:01:34;19.98;;;13.50;;
63818;SDS011;49970;54.976;73.248;2023-02-28T11:06:57;20.15;;;14.43;;
63818;SDS011;49970;54.976;73.248;2023-02-28T11:09:50;23.25;;;14.43;;
63818;SDS011;49970;54.976;73.248;2023-02-28T11:12:36;19.67;;;14.20;;
63818;SDS011;49970;54.976;73.248;2023-02-28T11:15:14;34.90;;;15.15;;
63818;SDS011;49970;54.976;73.248;2023-02-28T11:18:33;24.60;;;14.32;;
63818;SDS011;49970;54.976;73.248;2023-02-28T11:20:39;21.48;;;13.60;;
63818;SDS011;49970;54.976;73.248;2023-02-28T11:23:06;20.08;;;13.80;;
63818;SDS011;49970;54.976;73.248;2023-02-28T11:25:39;23.63;;;14.18;;
63818;SDS011;49970;54.976;73.248;2023-02-28T11:28:25;22.05;;;13.80;;
63818;SDS011;49970;54.976;73.248;2023-02-28T11:31:01;22.83;;;13.63;;
63818;SDS011;49970;54.976;73.248;2023-02-28T11:36:25;20.63;;;13.35;;
63818;SDS011;49970;54.976;73.248;2023-02-28T11:39:00;20.35;;;13.88;;
63818;SDS011;49970;54.976;73.248;2023-02-28T11:53:21;18.88;;;12.45;;
63818;SDS011;49970;54.976;73.248;2023-02-28T11:59:05;15.18;;;12.38;;
63818;SDS011;49970;54.976;73.248;2023-02-28T12:10:44;42.97;;;22.23;;
63818;SDS011;49970;54.976;73.248;2023-02-28T12:13:29;27.80;;;18.63;;
63818;SDS011;49970;54.976;73.248;2023-02-28T12:16:17;29.88;;;15.88;;
63818;SDS011;49970;54.976;73.248;2023-02-28T12:27:05;23.60;;;13.38;;
63818;SDS011;49970;54.976;73.248;2023-02-28T12:30:13;30.95;;;17.35;;
63818;SDS011;49970;54.976;73.248;2023-02-28T12:32:32;28.15;;;18.42;;
63818;SDS011;49970;54.976;73.248;2023-02-28T12:37:44;15.60;;;12.38;;
63818;SDS011;49970;54.976;73.248;2023-02-28T12:40:22;18.38;;;13.18;;
63818;SDS011;49970;54.976;73.248;2023-02-28T12:43:37;18.15;;;14.35;;
63818;SDS011;49970;54.976;73.248;2023-02-28T12:48:50;22.52;;;13.68;;
63818;SDS011;49970;54.976;73.248;2023-02-28T12:51:22;21.85;;;14.93;;
63818;SDS011;49970;54.976;73.248;2023-02-28T13:02:01;21.30;;;12.75;;
63818;SDS011;49970;54.976;73.248;2023-02-28T13:04:51;23.20;;;14.27;;
63818;SDS011;49970;54.976;73.248;2023-02-28T13:08:21;25.67;;;13.02;;
63818;SDS011;49970;54.976;73.248;2023-02-28T13:10:56;17.85;;;11.63;;
63818;SDS011;49970;54.976;73.248;2023-02-28T13:13:32;21.92;;;12.52;;
63818;SDS011;49970;54.976;73.248;2023-02-28T13:16:09;24.75;;;14.70;;
63818;SDS011;49970;54.976;73.248;2023-02-28T13:18:37;17.17;;;12.60;;
63818;SDS011;49970;54.976;73.248;2023-02-28T13:21:06;17.90;;;12.02;;
63818;SDS011;49970;54.976;73.248;2023-02-28T13:26:16;22.38;;;14.50;;
63818;SDS011;49970;54.976;73.248;2023-02-28T13:31:24;20.77;;;13.02;;
63818;SDS011;49970;54.976;73.248;2023-02-28T13:34:12;17.42;;;12.25;;
63818;SDS011;49970;54.976;73.248;2023-02-28T13:36:50;16.77;;;11.48;;
63818;SDS011;49970;54.976;73.248;2023-02-28T13:47:44;19.15;;;11.70;;
63818;SDS011;49970;54.976;73.248;2023-02-28T13:55:53;17.48;;;11.18;;
63818;SDS011;49970;54.976;73.248;2023-02-28T13:58:31;15.85;;;11.25;;
63818;SDS011;49970;54.976;73.248;2023-02-28T14:01:23;16.33;;;11.07;;
63818;SDS011;49970;54.976;73.248;2023-02-28T14:06:28;20.50;;;12.35;;
63818;SDS011;49970;54.976;73.248;2023-02-28T14:09:00;17.15;;;12.30;;
63818;SDS011;49970;54.976;73.248;2023-02-28T14:11:36;19.38;;;12.40;;
63818;SDS011;49970;54.976;73.248;2023-02-28T14:14:05;16.27;;;11.68;;
63818;SDS011;49970;54.976;73.248;2023-02-28T14:17:07;15.18;;;11.60;;
63818;SDS011;49970;54.976;73.248;2023-02-28T14:19:29;19.58;;;11.95;;
63818;SDS011;49970;54.976;73.248;2023-02-28T14:22:04;11.85;;;10.32;;
63818;SDS011;49970;54.976;73.248;2023-02-28T14:24:47;13.38;;;12.05;;
63818;SDS011;49970;54.976;73.248;2023-02-28T14:33:54;17.67;;;12.80;;
63818;SDS011;49970;54.976;73.248;2023-02-28T14:36:07;22.00;;;13.02;;
63818;SDS011;49970;54.976;73.248;2023-02-28T14:38:40;20.83;;;13.15;;
63818;SDS011;49970;54.976;73.248;2023-02-28T14:41:18;24.40;;;14.25;;
63818;SDS011;49970;54.976;73.248;2023-02-28T14:43:48;20.67;;;14.32;;
63818;SDS011;49970;54.976;73.248;2023-02-28T14:46:16;23.60;;;15.00;;
63818;SDS011;49970;54.976;73.248;2023-02-28T14:48:48;18.45;;;13.52;;
63818;SDS011;49970;54.976;73.248;2023-02-28T14:51:20;21.52;;;13.93;;
63818;SDS011;49970;54.976;73.248;2023-02-28T14:53:56;20.00;;;12.85;;
63818;SDS011;49970;54.976;73.248;2023-02-28T14:56:27;22.33;;;13.98;;
63818;SDS011;49970;54.976;73.248;2023-02-28T14:58:58;18.45;;;13.30;;
63818;SDS011;49970;54.976;73.248;2023-02-28T15:01:25;19.90;;;13.82;;
63818;SDS011;49970;54.976;73.248;2023-02-28T15:03:59;19.58;;;13.82;;
63818;SDS011;49970;54.976;73.248;2023-02-28T15:06:28;24.77;;;13.57;;
63818;SDS011;49970;54.976;73.248;2023-02-28T15:09:08;20.17;;;13.95;;
63818;SDS011;49970;54.976;73.248;2023-02-28T15:11:45;24.73;;;15.18;;
63818;SDS011;49970;54.976;73.248;2023-02-28T15:14:24;22.77;;;15.27;;
63818;SDS011;49970;54.976;73.248;2023-02-28T15:16:59;23.85;;;15.40;;
63818;SDS011;49970;54.976;73.248;2023-02-28T15:19:34;24.75;;;15.45;;
63818;SDS011;49970;54.976;73.248;2023-02-28T15:22:06;25.35;;;16.67;;
63818;SDS011;49970;54.976;73.248;2023-02-28T15:24:42;24.15;;;15.75;;
63818;SDS011;49970;54.976;73.248;2023-02-28T15:27:18;22.30;;;14.95;;
63818;SDS011;49970;54.976;73.248;2023-02-28T15:29:56;17.15;;;14.05;;
63818;SDS011;49970;54.976;73.248;2023-02-28T15:33:03;24.35;;;14.93;;
63818;SDS011;49970;54.976;73.248;2023-02-28T15:35:34;20.73;;;14.95;;
63818;SDS011;49970;54.976;73.248;2023-02-28T15:38:43;24.65;;;15.75;;
63818;SDS011;49970;54.976;73.248;2023-02-28T15:40:55;26.13;;;14.75;;
63818;SDS011;49970;54.976;73.248;2023-02-28T15:43:30;23.70;;;15.23;;
63818;SDS011;49970;54.976;73.248;2023-02-28T15:48:36;27.38;;;15.13;;
63818;SDS011;49970;54.976;73.248;2023-02-28T15:51:19;22.65;;;16.38;;
63818;SDS011;49970;54.976;73.248;2023-02-28T15:53:58;23.48;;;15.57;;
63818;SDS011;49970;54.976;73.248;2023-02-28T15:56:27;21.35;;;14.85;;
63818;SDS011;49970;54.976;73.248;2023-02-28T15:58:57;16.77;;;14.38;;
63818;SDS011;49970;54.976;73.248;2023-02-28T16:01:34;19.95;;;13.60;;
63818;SDS011;49970;54.976;73.248;2023-02-28T16:04:18;19.10;;;13.40;;
63818;SDS011;49970;54.976;73.248;2023-02-28T16:07:02;18.75;;;13.75;;
63818;SDS011;49970;54.976;73.248;2023-02-28T16:09:43;25.13;;;14.20;;
63818;SDS011;49970;54.976;73.248;2023-02-28T16:12:10;20.55;;;13.90;;
63818;SDS011;49970;54.976;73.248;2023-02-28T16:14:44;18.92;;;14.90;;
63818;SDS011;49970;54.976;73.248;2023-02-28T16:17:19;23.75;;;13.50;;
63818;SDS011;49970;54.976;73.248;2023-02-28T16:19:48;18.27;;;14.32;;
63818;SDS011;49970;54.976;73.248;2023-02-28T16:22:16;21.13;;;13.10;;
63818;SDS011;49970;54.976;73.248;2023-02-28T16:24:43;16.60;;;12.90;;
63818;SDS011;49970;54.976;73.248;2023-02-28T16:27:18;19.75;;;14.73;;
63818;SDS011;49970;54.976;73.248;2023-02-28T16:29:51;35.63;;;14.77;;
63818;SDS011;49970;54.976;73.248;2023-02-28T16:32:29;19.15;;;14.40;;
63818;SDS011;49970;54.976;73.248;2023-02-28T16:35:10;25.02;;;15.02;;
63818;SDS011;49970;54.976;73.248;2023-02-28T16:37:37;22.98;;;14.52;;
63818;SDS011;49970;54.976;73.248;2023-02-28T16:40:09;25.55;;;16.73;;
63818;SDS011;49970;54.976;73.248;2023-02-28T16:42:48;24.20;;;15.65;;
63818;SDS011;49970;54.976;73.248;2023-02-28T16:45:21;22.75;;;14.00;;
63818;SDS011;49970;54.976;73.248;2023-02-28T16:47:52;21.25;;;14.45;;
63818;SDS011;49970;54.976;73.248;2023-02-28T16:50:26;24.65;;;13.55;;
63818;SDS011;49970;54.976;73.248;2023-02-28T16:52:55;19.13;;;13.32;;
63818;SDS011;49970;54.976;73.248;2023-02-28T16:55:22;17.75;;;12.73;;
63818;SDS011;49970;54.976;73.248;2023-02-28T16:57:56;20.75;;;13.23;;
63818;SDS011;49970;54.976;73.248;2023-02-28T17:00:27;18.70;;;12.02;;
63818;SDS011;49970;54.976;73.248;2023-02-28T17:03:13;18.50;;;12.45;;
63818;SDS011;49970;54.976;73.248;2023-02-28T17:05:52;20.85;;;14.57;;
63818;SDS011;49970;54.976;73.248;2023-02-28T17:08:18;18.15;;;13.75;;
63818;SDS011;49970;54.976;73.248;2023-02-28T17:10:45;19.13;;;13.48;;